Terminal Aerodrome Forecast
Issued by NWS

Home | Current Version | Previous Version | Text Only | Print | Product List | Glossary On
Versions: 1 2 3 4 5 6 7 8 9 10 11 12 13 14 15 16 17
000
FTUS41 KBGM 191140
TAFELM
TAF
KELM 191140Z 1912/2012 27018G28KT P6SM OVC025
     FM191500 29018G35KT P6SM BKN040
     FM192000 29015G29KT P6SM BKN030
      TEMPO 1921/1924 2SM -SHSN OVC020
     FM200000 28010G17KT P6SM BKN040=

USA.gov is the U.S. government's official web portal to all federal, state and local government web resources and services.